Time;durP1;ratioP1;P1;durP2;ratioP2;P2;SDS_P1;SDS_P2;PMS_P1;PMS_P2;Temp;Humidity;BMP_temperature;BMP_pressure;BME280_temperature;BME280_humidity;BME280_pressure;Samples;Min_cycle;Max_cycle;Signal;HPM_P1;HPM_P2
2021/10/10 00:02:15;;;;;;;0.00;0.00;;;;;;;4.94;89.59;103150.56;10289153;28;20023;-65
2021/10/10 00:07:15;;;;;;;0.00;0.00;;;;;;;4.84;90.14;103158.97;10325982;28;20014;-65
2021/10/10 00:12:16;;;;;;;0.00;0.00;;;;;;;4.76;90.14;103154.00;10290532;28;20105;-65
2021/10/10 00:17:16;;;;;;;0.00;0.00;;;;;;;4.70;90.19;103149.84;10303811;28;20037;-65
2021/10/10 00:22:16;;;;;;;0.00;0.00;;;;;;;4.62;90.42;103156.34;10306352;28;20749;-65
2021/10/10 00:27:17;;;;;;;0.00;0.00;;;;;;;4.52;90.45;103156.75;10306533;28;20023;-65
2021/10/10 00:32:18;;;;;;;0.00;0.00;;;;;;;4.45;91.18;103159.69;10325992;28;20026;-65
2021/10/10 00:37:18;;;;;;;0.00;0.00;;;;;;;4.44;91.31;103158.84;10323867;28;20027;-66
2021/10/10 00:42:19;;;;;;;0.00;0.00;;;;;;;4.44;90.86;103153.56;10308839;28;20492;-65
2021/10/10 00:47:19;;;;;;;0.00;0.00;;;;;;;4.52;90.41;103154.09;10301239;28;20396;-64
2021/10/10 00:52:20;;;;;;;0.00;0.00;;;;;;;4.54;90.27;103154.06;10289704;28;20052;-64
2021/10/10 00:57:23;;;;;;;0.00;0.00;;;;;;;4.54;89.77;103154.06;10300264;28;20346;-64
2021/10/10 01:02:23;;;;;;;0.00;0.00;;;;;;;4.53;89.95;103154.97;10286815;28;20042;-65
2021/10/10 01:07:26;;;;;;;0.00;0.00;;;;;;;4.67;89.04;103157.03;10315260;28;20478;-65
2021/10/10 01:12:26;;;;;;;0.00;0.00;;;;;;;4.67;89.12;103149.97;10316881;28;20050;-64
2021/10/10 01:17:27;;;;;;;0.00;0.00;;;;;;;4.59;88.97;103146.78;10310496;28;20046;-64
2021/10/10 01:22:29;;;;;;;0.08;0.08;;;;;;;4.51;89.22;103144.47;10316624;28;20113;-64
2021/10/10 01:27:30;;;;;;;0.00;0.00;;;;;;;4.40;89.85;103133.50;10319072;28;20111;-65
2021/10/10 01:32:30;;;;;;;0.00;0.00;;;;;;;4.31;89.89;103124.19;10313118;28;20045;-64
2021/10/10 01:37:30;;;;;;;0.00;0.00;;;;;;;4.19;89.92;103127.31;10299208;28;20038;-66
2021/10/10 01:42:31;;;;;;;0.00;0.00;;;;;;;3.99;90.13;103127.25;10302634;28;20938;-66
2021/10/10 01:47:31;;;;;;;0.00;0.00;;;;;;;3.80;91.23;103135.00;10313177;28;20026;-64
2021/10/10 01:52:32;;;;;;;0.00;0.00;;;;;;;3.56;90.90;103124.47;10310419;28;20022;-66
2021/10/10 01:57:32;;;;;;;0.00;0.00;;;;;;;3.33;92.17;103132.34;10295876;28;20030;-64
2021/10/10 02:02:32;;;;;;;0.00;0.00;;;;;;;3.22;92.51;103127.47;10296167;28;20026;-64
2021/10/10 02:07:33;;;;;;;0.00;0.00;;;;;;;3.21;93.42;103122.28;10303901;28;20022;-65
2021/10/10 02:12:34;;;;;;;0.00;0.00;;;;;;;3.20;93.34;103121.41;10321286;28;20270;-65
2021/10/10 02:17:34;;;;;;;0.00;0.00;;;;;;;3.18;93.71;103125.88;10321259;28;20540;-64
2021/10/10 02:22:35;;;;;;;0.00;0.00;;;;;;;3.13;93.98;103128.66;10319583;28;20117;-64
2021/10/10 02:27:36;;;;;;;0.00;0.00;;;;;;;3.07;94.36;103126.25;10321327;28;20018;-63
2021/10/10 02:32:36;;;;;;;0.00;0.00;;;;;;;2.99;94.48;103130.91;10310014;28;20030;-65
2021/10/10 02:37:36;;;;;;;0.00;0.00;;;;;;;2.93;94.65;103125.88;10302976;28;20640;-65
2021/10/10 02:42:37;;;;;;;0.00;0.00;;;;;;;2.83;94.79;103109.53;10307373;28;20381;-65
2021/10/10 02:47:37;;;;;;;0.00;0.00;;;;;;;2.74;94.89;103107.22;10319830;28;20029;-65
2021/10/10 02:52:38;;;;;;;0.00;0.00;;;;;;;2.67;94.55;103098.66;10305874;28;20038;-64
2021/10/10 02:57:38;;;;;;;0.00;0.00;;;;;;;2.63;94.95;103096.22;10300913;28;20048;-63
2021/10/10 03:02:38;;;;;;;0.00;0.00;;;;;;;2.57;95.04;103091.16;10315594;28;20026;-64
2021/10/10 03:07:39;;;;;;;0.00;0.00;;;;;;;2.43;95.48;103084.56;10322477;28;20026;-64
2021/10/10 03:12:39;;;;;;;0.00;0.00;;;;;;;2.26;95.20;103071.97;10318605;28;20026;-64
2021/10/10 03:17:39;;;;;;;0.00;0.00;;;;;;;2.07;95.03;103065.63;10297346;28;20448;-63
2021/10/10 03:22:40;;;;;;;0.00;0.00;;;;;;;1.91;95.07;103059.97;10315965;28;20036;-63
2021/10/10 03:27:40;;;;;;;0.00;0.00;;;;;;;1.93;97.20;103062.56;10329484;28;20341;-64
2021/10/10 03:32:40;;;;;;;0.10;0.10;;;;;;;2.01;98.08;103050.03;10304267;28;20015;-63
2021/10/10 03:37:41;;;;;;;0.00;0.00;;;;;;;2.05;98.42;103041.13;10318927;28;20237;-63
2021/10/10 03:42:42;;;;;;;0.10;0.10;;;;;;;2.00;98.14;103043.03;10317376;28;20683;-63
2021/10/10 03:47:42;;;;;;;0.00;0.00;;;;;;;2.04;98.96;103037.66;10298653;28;20259;-63
2021/10/10 03:52:43;;;;;;;0.00;0.00;;;;;;;2.14;99.03;103037.34;10316661;28;20076;-65
2021/10/10 03:57:43;;;;;;;0.00;0.00;;;;;;;2.18;99.18;103029.31;10323303;28;20053;-64
2021/10/10 04:02:43;;;;;;;0.10;0.10;;;;;;;2.18;98.73;103038.94;10310512;28;20030;-63
2021/10/10 04:07:44;;;;;;;0.10;0.10;;;;;;;2.17;98.91;103026.72;10307497;28;20069;-62
2021/10/10 04:12:45;;;;;;;0.00;0.00;;;;;;;2.16;98.74;103020.63;10327221;28;20029;-64
2021/10/10 04:17:46;;;;;;;0.00;0.00;;;;;;;2.19;98.94;103012.63;10327764;28;20273;-65
2021/10/10 04:22:47;;;;;;;0.00;0.00;;;;;;;2.24;99.59;103007.19;10316713;28;20446;-65
2021/10/10 04:27:47;;;;;;;0.00;0.00;;;;;;;2.28;99.19;103000.09;10316141;28;20019;-63
2021/10/10 04:32:47;;;;;;;0.00;0.00;;;;;;;2.25;98.54;102996.63;10287923;28;20022;-64
2021/10/10 04:37:47;;;;;;;0.00;0.00;;;;;;;2.21;98.50;102995.03;10321035;28;20270;-63
2021/10/10 04:42:48;;;;;;;0.08;0.08;;;;;;;2.21;99.17;102997.66;10327578;28;20022;-64
2021/10/10 04:47:48;;;;;;;0.00;0.00;;;;;;;2.23;99.22;102985.28;10326833;28;20018;-63
2021/10/10 04:52:48;;;;;;;0.00;0.00;;;;;;;2.26;99.68;102987.81;10316314;28;20478;-64
2021/10/10 04:57:49;;;;;;;0.10;0.10;;;;;;;2.32;99.89;102975.38;10311572;22;20081;-65
2021/10/10 05:02:49;;;;;;;0.00;0.00;;;;;;;2.35;100.00;102976.13;10368394;28;20030;-65
2021/10/10 05:07:49;;;;;;;0.00;0.00;;;;;;;2.41;99.51;102972.44;10367397;28;20024;-64
2021/10/10 05:12:49;;;;;;;0.00;0.00;;;;;;;2.43;100.00;102963.56;10367711;28;20026;-64
2021/10/10 05:17:50;;;;;;;0.00;0.00;;;;;;;2.46;99.95;102960.84;10365447;28;20499;-64
2021/10/10 05:22:50;;;;;;;0.10;0.10;;;;;;;2.48;99.69;102960.78;10367297;28;20377;-65
2021/10/10 05:27:50;;;;;;;0.00;0.00;;;;;;;2.50;99.11;102969.47;10367282;28;20481;-64
2021/10/10 05:32:51;;;;;;;0.00;0.00;;;;;;;2.51;98.47;102965.94;10367799;28;20384;-65
2021/10/10 05:37:51;;;;;;;0.00;0.00;;;;;;;2.52;99.03;102965.03;10374928;28;20026;-64
2021/10/10 05:42:51;;;;;;;0.00;0.00;;;;;;;2.57;98.48;102970.13;10376211;28;20010;-63
2021/10/10 05:47:51;;;;;;;0.00;0.00;;;;;;;2.66;98.22;102968.00;10375474;28;20029;-65
2021/10/10 05:52:52;;;;;;;0.00;0.00;;;;;;;2.76;97.62;102965.03;10374965;28;20112;-64
2021/10/10 05:57:52;;;;;;;0.00;0.00;;;;;;;3.45;97.75;102960.66;10374248;28;20752;-66
2021/10/10 06:02:52;;;;;;;0.00;0.00;;;;;;;4.83;93.57;102954.78;10374532;28;20476;-65
2021/10/10 06:07:53;;;;;;;0.00;0.00;;;;;;;5.22;87.97;102940.66;10373053;28;20275;-65
2021/10/10 06:12:53;;;;;;;0.00;0.00;;;;;;;6.12;87.01;102949.47;10374322;28;20014;-64
2021/10/10 06:17:54;;;;;;;0.00;0.00;;;;;;;7.34;82.23;102948.28;10373514;28;20030;-65
2021/10/10 06:22:54;;;;;;;0.00;0.00;;;;;;;7.58;80.40;102949.53;10372840;28;20021;-64
2021/10/10 06:27:54;;;;;;;0.00;0.00;;;;;;;7.84;79.83;102944.53;10373127;28;20026;-65
2021/10/10 06:32:55;;;;;;;0.10;0.10;;;;;;;9.06;75.56;102953.00;10371369;28;20029;-66
2021/10/10 06:37:55;;;;;;;0.10;0.10;;;;;;;9.75;73.29;102945.03;10371368;28;20385;-66
2021/10/10 06:42:55;;;;;;;0.10;0.10;;;;;;;10.04;71.82;102947.56;10372760;28;20541;-66
2021/10/10 06:47:55;;;;;;;0.10;0.10;;;;;;;10.68;69.95;102948.47;10371495;28;20040;-65
2021/10/10 06:52:56;;;;;;;0.00;0.00;;;;;;;11.55;67.69;102943.97;10372370;28;20022;-66
2021/10/10 06:57:56;;;;;;;0.00;0.00;;;;;;;11.33;66.84;102936.69;10368703;28;20030;-66
2021/10/10 07:02:58;;;;;;;0.00;0.00;;;;;;;11.43;66.87;102937.72;10371534;28;20022;-66
2021/10/10 07:07:58;;;;;;;0.10;0.10;;;;;;;11.78;65.82;102935.09;10372273;28;20041;-67
2021/10/10 07:12:58;;;;;;;0.10;0.10;;;;;;;11.92;66.03;102938.53;10370109;28;20036;-67
2021/10/10 07:18:01;;;;;;;0.10;0.10;;;;;;;12.25;63.55;102945.81;10370650;28;20029;-67
2021/10/10 07:28:21;;;;;;;0.10;0.10;;;;;;;13.42;60.46;102918.66;10370574;28;20048;-66
2021/10/10 07:33:21;;;;;;;0.10;0.10;;;;;;;13.95;58.24;102920.50;10370160;28;20037;-66
2021/10/10 07:38:21;;;;;;;0.10;0.10;;;;;;;14.57;58.51;102918.75;10370617;28;20029;-66
2021/10/10 07:43:22;;;;;;;0.03;0.03;;;;;;;14.47;55.70;102921.38;10370236;28;20537;-66
2021/10/10 07:48:23;;;;;;;0.10;0.10;;;;;;;14.00;55.15;102926.31;10367981;28;20077;-67
2021/10/10 07:53:23;;;;;;;0.10;0.10;;;;;;;13.63;55.78;102931.22;10369716;28;20079;-66
2021/10/10 07:58:23;;;;;;;0.00;0.00;;;;;;;13.08;57.69;102934.75;10367531;28;20547;-67
2021/10/10 08:03:24;;;;;;;0.10;0.10;;;;;;;12.62;58.09;102924.22;10369263;28;20396;-67
2021/10/10 08:08:24;;;;;;;0.10;0.10;;;;;;;12.63;59.49;102926.78;10368784;28;20032;-67
2021/10/10 08:13:24;;;;;;;0.10;0.10;;;;;;;12.32;59.82;102932.81;10367451;28;20018;-67
2021/10/10 08:18:24;;;;;;;0.10;0.10;;;;;;;12.81;58.94;102919.09;10368415;28;20029;-68
2021/10/10 08:23:25;;;;;;;0.10;0.10;;;;;;;13.33;58.33;102928.28;10368811;28;20470;-68
2021/10/10 08:28:25;;;;;;;0.10;0.10;;;;;;;13.35;58.42;102933.50;10366918;28;20453;-68
2021/10/10 08:33:28;;;;;;;0.00;0.00;;;;;;;13.17;56.47;102926.94;10368607;28;20026;-67
2021/10/10 08:38:29;;;;;;;0.00;0.00;;;;;;;12.96;58.20;102919.69;10367602;28;20022;-66
2021/10/10 08:43:31;;;;;;;0.10;0.10;;;;;;;13.27;58.03;102906.53;10368099;28;20041;-66
2021/10/10 08:48:32;;;;;;;0.10;0.10;;;;;;;12.11;58.44;102912.13;10367549;28;20527;-66
2021/10/10 08:53:35;;;;;;;0.10;0.10;;;;;;;11.46;60.69;102909.94;10366200;28;20022;-67
2021/10/10 08:58:41;;;;;;;0.10;0.10;;;;;;;10.96;63.71;102917.16;10364608;28;20083;-66
2021/10/10 09:03:53;;;;;;;0.00;0.00;;;;;;;10.71;64.61;102912.75;10366015;28;20029;-66
2021/10/10 09:08:54;;;;;;;0.10;0.10;;;;;;;10.44;64.35;102905.72;10366553;28;20104;-66
2021/10/10 09:14:01;;;;;;;0.10;0.10;;;;;;;10.28;66.78;102905.94;10367113;28;20026;-66
2021/10/10 09:19:30;;;;;;;0.10;0.10;;;;;;;10.10;67.94;102901.88;10367168;28;20053;-65
2021/10/10 09:24:30;;;;;;;0.10;0.10;;;;;;;9.86;67.76;102883.94;10367428;28;20026;-66
2021/10/10 09:29:35;;;;;;;0.10;0.10;;;;;;;9.79;67.76;102893.28;10366417;28;20018;-66
2021/10/10 09:34:37;;;;;;;0.10;0.10;;;;;;;9.77;67.23;102899.66;10365656;28;20033;-66
2021/10/10 09:39:44;;;;;;;0.10;0.10;;;;;;;9.98;67.10;102904.41;10366265;28;20018;-68
2021/10/10 09:44:47;;;;;;;0.10;0.10;;;;;;;10.73;64.76;102890.31;10366907;28;20024;-67
2021/10/10 09:49:47;;;;;;;0.10;0.10;;;;;;;11.22;63.83;102870.75;10366987;28;20022;-65
2021/10/10 09:54:49;;;;;;;0.10;0.10;;;;;;;11.00;63.65;102860.00;10366303;28;20026;-66
2021/10/10 09:59:50;;;;;;;0.00;0.00;;;;;;;10.86;63.69;102863.66;10364557;28;20320;-67
2021/10/10 10:04:51;;;;;;;0.10;0.10;;;;;;;10.73;65.36;102863.66;10366461;28;20046;-65
2021/10/10 10:09:52;;;;;;;0.10;0.10;;;;;;;10.97;64.69;102852.22;10366028;28;20072;-65
2021/10/10 10:14:56;;;;;;;0.10;0.10;;;;;;;11.00;64.90;102858.16;10365958;28;20029;-66
2021/10/10 10:20:00;;;;;;;0.10;0.10;;;;;;;10.89;65.04;102860.75;10367908;28;20341;-67
2021/10/10 10:25:01;;;;;;;0.10;0.10;;;;;;;11.04;67.61;102856.97;10372810;28;20380;-65
2021/10/10 10:30:03;;;;;;;0.10;0.10;;;;;;;11.05;68.91;102855.16;10369999;28;20032;-66
2021/10/10 10:35:18;;;;;;;0.10;0.10;;;;;;;11.13;66.47;102851.94;10373116;28;20102;-65
2021/10/10 10:40:27;;;;;;;0.10;0.10;;;;;;;11.36;69.74;102858.22;10372876;28;20017;-65
2021/10/10 10:45:29;;;;;;;0.10;0.10;;;;;;;11.55;66.84;102848.72;10371307;28;20061;-68
2021/10/10 10:50:32;;;;;;;0.10;0.10;;;;;;;11.64;67.89;102847.19;10372671;28;20025;-66
2021/10/10 10:55:37;;;;;;;0.00;0.00;;;;;;;11.55;66.96;102838.06;10372156;28;20075;-67
2021/10/10 11:00:41;;;;;;;0.00;0.00;;;;;;;11.50;66.76;102840.22;10371722;28;20018;-66
2021/10/10 11:05:53;;;;;;;0.10;0.10;;;;;;;11.57;66.50;102827.25;10383771;23;20026;-64
2021/10/10 11:11:00;;;;;;;0.10;0.10;;;;;;;11.56;66.40;102814.88;10285382;28;20117;-65
2021/10/10 11:16:12;;;;;;;0.10;0.10;;;;;;;11.43;66.88;102800.75;10289185;28;20170;-64
2021/10/10 11:21:16;;;;;;;0.10;0.10;;;;;;;11.38;68.21;102803.78;10289845;28;20022;-64
2021/10/10 11:26:16;;;;;;;0.00;0.00;;;;;;;11.39;67.35;102801.97;10288606;28;20116;-65
2021/10/10 11:31:28;;;;;;;0.10;0.10;;;;;;;11.44;68.89;102810.47;10288271;28;20046;-64
2021/10/10 11:36:35;;;;;;;0.00;0.00;;;;;;;11.45;67.96;102812.16;10286247;28;20200;-65
2021/10/10 11:41:40;;;;;;;0.10;0.10;;;;;;;11.59;68.55;102803.13;10287380;28;20041;-65
2021/10/10 11:46:43;;;;;;;0.10;0.10;;;;;;;11.67;67.95;102796.22;10288038;28;20015;-64
2021/10/10 11:51:48;;;;;;;0.10;0.10;;;;;;;11.90;69.37;102791.81;10288412;28;20019;-65
2021/10/10 11:56:56;;;;;;;0.08;0.08;;;;;;;11.99;65.64;102790.22;10286818;28;20023;-64
2021/10/10 12:01:57;;;;;;;0.10;0.10;;;;;;;12.04;67.23;102793.38;10286078;28;20026;-65
2021/10/10 12:06:57;;;;;;;0.10;0.10;;;;;;;12.14;66.18;102781.00;10285134;28;20023;-66
2021/10/10 12:12:09;;;;;;;0.10;0.10;;;;;;;12.09;63.51;102771.66;10286242;28;20021;-64
2021/10/10 12:17:35;;;;;;;0.10;0.10;;;;;;;12.11;65.16;102765.22;10284007;28;20030;-65
2021/10/10 12:22:35;;;;;;;0.00;0.00;;;;;;;12.09;62.99;102772.50;10285304;28;20019;-65
2021/10/10 12:27:35;;;;;;;0.10;0.10;;;;;;;11.97;62.38;102766.31;10285904;28;20540;-65
2021/10/10 12:32:36;;;;;;;0.05;0.05;;;;;;;12.00;65.49;102770.56;10285204;28;20074;-66
2021/10/10 12:37:36;;;;;;;0.10;0.10;;;;;;;11.99;63.61;102759.03;10285701;28;20056;-65
2021/10/10 12:42:48;;;;;;;0.10;0.10;;;;;;;12.06;65.17;102748.69;10284152;28;20486;-65
2021/10/10 12:48:01;;;;;;;0.10;0.10;;;;;;;12.10;66.01;102739.50;10284656;28;20023;-65
2021/10/10 12:53:02;;;;;;;0.00;0.00;;;;;;;12.19;67.11;102729.88;10284169;28;20031;-65
2021/10/10 12:58:12;;;;;;;0.10;0.10;;;;;;;12.27;63.22;102727.41;10283890;28;20465;-65
2021/10/10 13:03:13;;;;;;;0.10;0.10;;;;;;;12.35;62.71;102719.63;10283773;28;20339;-65
2021/10/10 13:08:14;;;;;;;0.10;0.10;;;;;;;12.44;66.00;102721.56;10282051;28;20030;-65
2021/10/10 13:13:14;;;;;;;0.00;0.00;;;;;;;12.43;63.71;102719.88;10282746;28;20283;-65
2021/10/10 13:18:14;;;;;;;0.10;0.10;;;;;;;12.49;64.73;102710.50;10283216;28;20035;-65
2021/10/10 13:23:14;;;;;;;0.10;0.10;;;;;;;12.52;64.42;102707.56;10283976;28;20018;-65
2021/10/10 13:28:15;;;;;;;0.10;0.10;;;;;;;12.54;63.92;102710.13;10286060;28;20023;-65
2021/10/10 13:33:15;;;;;;;0.10;0.10;;;;;;;12.59;62.18;102702.56;10282774;28;20046;-66
2021/10/10 13:38:15;;;;;;;0.10;0.10;;;;;;;12.65;64.34;102694.91;10283165;28;20482;-65
2021/10/10 13:43:16;;;;;;;0.10;0.10;;;;;;;12.67;63.53;102687.59;10283265;28;20023;-65
2021/10/10 13:48:17;;;;;;;0.10;0.10;;;;;;;12.77;63.04;102689.50;10285122;28;20124;-66
2021/10/10 13:53:17;;;;;;;0.10;0.10;;;;;;;12.81;61.09;102686.44;10283156;28;20023;-65
2021/10/10 13:58:18;;;;;;;0.10;0.10;;;;;;;12.81;61.44;102670.41;10288274;28;20035;-66
2021/10/10 14:03:19;;;;;;;0.10;0.10;;;;;;;12.77;63.36;102670.78;10292364;28;20121;-65
2021/10/10 14:08:21;;;;;;;0.10;0.10;;;;;;;12.66;62.82;102658.31;10291427;28;20041;-67
2021/10/10 14:13:21;;;;;;;0.10;0.10;;;;;;;12.58;63.22;102658.94;10291356;28;20014;-66
2021/10/10 14:18:22;;;;;;;0.00;0.00;;;;;;;12.53;64.04;102646.94;10291674;28;20112;-65
2021/10/10 14:23:22;;;;;;;0.10;0.10;;;;;;;12.52;62.92;102647.94;10290756;28;20423;-66
2021/10/10 14:28:23;;;;;;;0.00;0.00;;;;;;;12.48;64.17;102643.78;10290448;28;20050;-66
2021/10/10 14:33:24;;;;;;;0.03;0.03;;;;;;;12.36;65.00;102642.97;10289879;28;20019;-66
2021/10/10 14:38:24;;;;;;;0.10;0.10;;;;;;;12.27;66.02;102649.09;10286409;28;20022;-66
2021/10/10 14:43:30;;;;;;;0.10;0.10;;;;;;;12.14;65.84;102642.09;10289274;28;20434;-67
2021/10/10 14:48:31;;;;;;;0.10;0.10;;;;;;;12.07;66.57;102643.56;10289529;28;20674;-66
2021/10/10 14:53:31;;;;;;;0.10;0.10;;;;;;;12.02;68.32;102634.25;10288162;28;20066;-66
2021/10/10 14:58:33;;;;;;;0.10;0.10;;;;;;;11.97;67.75;102629.25;10287592;28;20417;-66
2021/10/10 15:03:33;;;;;;;0.10;0.10;;;;;;;11.89;67.57;102629.88;10288513;28;20042;-66
2021/10/10 15:08:34;;;;;;;0.10;0.10;;;;;;;11.83;68.17;102616.13;10286168;28;20383;-66
2021/10/10 15:13:34;;;;;;;0.10;0.10;;;;;;;11.72;69.03;102619.66;10287712;28;20023;-67
2021/10/10 15:18:36;;;;;;;0.10;0.10;;;;;;;11.63;70.13;102612.38;10287159;28;20035;-66
2021/10/10 15:23:37;;;;;;;0.10;0.10;;;;;;;11.51;70.92;102617.72;10283612;28;20038;-66
2021/10/10 15:28:38;;;;;;;0.00;0.00;;;;;;;11.38;72.41;102614.34;10286956;28;20034;-65
2021/10/10 15:33:38;;;;;;;0.10;0.10;;;;;;;11.27;71.67;102604.50;10286250;28;20474;-66
2021/10/10 15:38:38;;;;;;;0.10;0.10;;;;;;;11.18;73.32;102613.25;10285575;28;20125;-66
2021/10/10 15:43:40;;;;;;;0.08;0.08;;;;;;;11.09;73.17;102613.97;10288119;28;20138;-66
2021/10/10 15:48:42;;;;;;;0.00;0.00;;;;;;;10.99;74.24;102607.63;10286351;28;20043;-65
2021/10/10 15:53:42;;;;;;;0.10;0.10;;;;;;;10.84;74.86;102602.50;10287332;28;20049;-66
2021/10/10 15:58:42;;;;;;;0.00;0.00;;;;;;;10.69;76.27;102590.34;10285924;28;20037;-65
2021/10/10 16:03:43;;;;;;;0.10;0.10;;;;;;;10.48;77.43;102590.16;10283536;28;20037;-66
2021/10/10 16:08:43;;;;;;;0.08;0.08;;;;;;;10.30;77.91;102594.22;10284276;28;20140;-66
2021/10/10 16:13:43;;;;;;;0.00;0.00;;;;;;;10.10;78.58;102583.19;10285722;28;20595;-66
2021/10/10 16:18:44;;;;;;;0.10;0.10;;;;;;;9.89;79.27;102574.97;10284639;28;20566;-67
2021/10/10 16:23:44;;;;;;;0.10;0.10;;;;;;;9.69;79.15;102578.22;10284272;28;20488;-67
2021/10/10 16:28:45;;;;;;;0.10;0.10;;;;;;;9.51;80.46;102581.25;10284431;28;20493;-67
2021/10/10 16:33:50;;;;;;;0.10;0.10;;;;;;;9.32;81.73;102577.34;10283563;28;20086;-67
2021/10/10 16:38:54;;;;;;;0.10;0.10;;;;;;;9.10;81.61;102576.16;10281701;28;20030;-66
2021/10/10 16:43:55;;;;;;;0.10;0.10;;;;;;;8.89;82.87;102577.66;10283011;28;20023;-66
2021/10/10 16:48:55;;;;;;;0.00;0.00;;;;;;;8.69;82.90;102579.00;10283971;28;20023;-65
2021/10/10 16:53:55;;;;;;;0.10;0.10;;;;;;;8.48;84.20;102568.88;10284455;28;20019;-66
2021/10/10 16:58:55;;;;;;;0.10;0.10;;;;;;;8.31;85.70;102572.63;10282947;28;20026;-66
2021/10/10 17:03:56;;;;;;;0.10;0.10;;;;;;;8.21;86.43;102568.88;10283925;28;20029;-66
2021/10/10 17:08:57;;;;;;;0.10;0.10;;;;;;;8.04;86.74;102571.78;10286236;28;20113;-68
2021/10/10 17:14:02;;;;;;;0.10;0.10;;;;;;;7.90;88.08;102578.00;10286085;28;20019;-66
2021/10/10 17:19:02;;;;;;;0.10;0.10;;;;;;;7.77;87.50;102577.94;10286732;28;20097;-66
2021/10/10 17:24:03;;;;;;;0.10;0.10;;;;;;;7.63;88.66;102573.50;10284705;28;20047;-67
2021/10/10 17:29:03;;;;;;;0.00;0.00;;;;;;;7.47;88.72;102580.72;10285427;28;20485;-66
2021/10/10 17:34:05;;;;;;;0.00;0.00;;;;;;;7.34;88.97;102588.59;10288104;28;20081;-65
2021/10/10 17:39:08;;;;;;;0.00;0.00;;;;;;;7.22;89.41;102606.09;10291120;28;20034;-67
2021/10/10 17:44:10;;;;;;;0.00;0.00;;;;;;;7.10;89.86;102593.59;10288021;28;20038;-66
2021/10/10 17:49:10;;;;;;;0.00;0.00;;;;;;;7.00;90.33;102588.00;10290741;28;20231;-66
2021/10/10 17:54:11;;;;;;;0.00;0.00;;;;;;;6.93;91.39;102591.97;10291540;28;20387;-66
2021/10/10 17:59:22;;;;;;;0.00;0.00;;;;;;;6.90;91.25;102589.50;10288891;28;20031;-65
2021/10/10 18:15:19;;;;;;;0.00;0.00;;;;;;;6.90;93.00;102592.16;10288825;28;20020;-66
2021/10/10 18:20:22;;;;;;;0.00;0.00;;;;;;;6.86;92.72;102597.72;10331722;22;20046;-66
2021/10/10 18:25:23;;;;;;;0.00;0.00;;;;;;;6.77;93.09;102584.06;10392527;28;20144;-64
2021/10/10 18:30:23;;;;;;;0.00;0.00;;;;;;;6.69;92.96;102591.63;10415770;28;20440;-64
2021/10/10 18:35:23;;;;;;;0.00;0.00;;;;;;;6.66;93.74;102589.19;10433014;28;20769;-65
2021/10/10 18:40:24;;;;;;;0.00;0.00;;;;;;;6.69;94.55;102589.00;10390886;28;20030;-65
2021/10/10 18:45:24;;;;;;;0.00;0.00;;;;;;;6.73;94.88;102590.50;10389296;28;20045;-64
2021/10/10 18:50:24;;;;;;;0.00;0.00;;;;;;;6.72;93.96;102582.63;10395060;28;20052;-65
2021/10/10 18:55:26;;;;;;;0.00;0.00;;;;;;;6.65;94.58;102570.72;10403747;28;20017;-65
2021/10/10 19:00:26;;;;;;;0.00;0.00;;;;;;;6.58;95.16;102563.13;10410954;28;20023;-65
2021/10/10 19:05:26;;;;;;;0.00;0.00;;;;;;;6.55;94.75;102565.97;10413486;28;20383;-65
2021/10/10 19:10:27;;;;;;;0.00;0.00;;;;;;;6.53;95.87;102564.34;10380175;28;20107;-65
2021/10/10 19:15:28;;;;;;;0.00;0.00;;;;;;;6.50;95.39;102554.78;10371158;28;20465;-65
2021/10/10 19:20:28;;;;;;;0.00;0.00;;;;;;;6.39;94.68;102564.31;10386374;28;20029;-65
2021/10/10 19:25:29;;;;;;;0.00;0.00;;;;;;;6.28;95.60;102556.97;10408246;28;20469;-65
2021/10/10 19:30:31;;;;;;;0.00;0.00;;;;;;;6.26;96.80;102554.44;10378542;28;20120;-65
2021/10/10 19:35:31;;;;;;;0.05;0.05;;;;;;;6.28;97.52;102555.22;10395110;28;20021;-65
2021/10/10 19:40:32;;;;;;;0.00;0.00;;;;;;;6.24;96.86;102566.91;10410711;28;20017;-65
2021/10/10 19:45:32;;;;;;;0.00;0.00;;;;;;;6.17;97.60;102568.19;10410304;28;20384;-65
2021/10/10 19:50:32;;;;;;;0.00;0.00;;;;;;;6.16;97.55;102569.13;10410708;28;20030;-65
2021/10/10 19:55:36;;;;;;;0.10;0.10;;;;;;;6.10;97.41;102562.38;10409877;28;20388;-65
2021/10/10 20:00:36;;;;;;;0.00;0.00;;;;;;;6.08;97.90;102566.94;10409094;28;20021;-65
2021/10/10 20:05:37;;;;;;;0.00;0.00;;;;;;;6.09;98.44;102557.19;10399531;28;20452;-65
2021/10/10 20:10:37;;;;;;;0.00;0.00;;;;;;;6.07;98.44;102548.50;10399203;28;20029;-65
2021/10/10 20:15:40;;;;;;;0.00;0.00;;;;;;;6.04;98.68;102565.38;10402745;28;20477;-65
2021/10/10 20:20:40;;;;;;;0.00;0.00;;;;;;;6.07;98.62;102553.78;10406836;28;20434;-65
2021/10/10 20:25:40;;;;;;;0.00;0.00;;;;;;;6.07;98.43;102554.63;10409376;28;20074;-65
2021/10/10 20:30:41;;;;;;;0.00;0.00;;;;;;;6.13;99.18;102548.97;10408915;28;20036;-65
2021/10/10 20:35:42;;;;;;;0.00;0.00;;;;;;;6.19;98.99;102545.13;10409053;28;20044;-65
2021/10/10 20:40:43;;;;;;;0.00;0.00;;;;;;;6.27;99.08;102545.53;10408879;28;20032;-65
2021/10/10 20:45:43;;;;;;;0.00;0.00;;;;;;;6.41;99.58;102542.09;10397478;28;20393;-66
2021/10/10 20:50:43;;;;;;;0.00;0.00;;;;;;;6.54;99.36;102548.38;10396276;28;20025;-65
2021/10/10 20:55:44;;;;;;;0.00;0.00;;;;;;;6.66;99.48;102537.97;10408689;28;20059;-65
2021/10/10 21:00:44;;;;;;;0.00;0.00;;;;;;;6.70;98.83;102532.44;10408110;28;20022;-65
2021/10/10 21:05:47;;;;;;;0.00;0.00;;;;;;;6.77;98.76;102520.50;10407500;28;20026;-65
2021/10/10 21:10:47;;;;;;;0.00;0.00;;;;;;;6.82;98.77;102514.94;10380482;28;20026;-66
2021/10/10 21:15:48;;;;;;;0.00;0.00;;;;;;;6.85;98.45;102503.31;10367437;28;20531;-65
2021/10/10 21:20:49;;;;;;;0.00;0.00;;;;;;;6.80;97.58;102503.56;10393856;28;20040;-65
2021/10/10 21:25:49;;;;;;;0.10;0.10;;;;;;;6.77;98.09;102491.38;10369912;28;20121;-65
2021/10/10 21:31:08;;;;;;;0.00;0.00;;;;;;;6.75;97.82;102493.28;10367140;28;20026;-65
2021/10/10 21:36:09;;;;;;;0.00;0.00;;;;;;;6.75;98.19;102480.03;10366785;28;20108;-65
2021/10/10 21:41:10;;;;;;;0.00;0.00;;;;;;;6.75;98.35;102474.75;10366968;28;20120;-65
2021/10/10 21:46:10;;;;;;;0.00;0.00;;;;;;;6.78;98.62;102466.59;10375064;28;20072;-65
2021/10/10 21:51:12;;;;;;;0.00;0.00;;;;;;;6.79;98.50;102457.72;10394886;28;20288;-64
2021/10/10 21:56:15;;;;;;;0.00;0.00;;;;;;;6.84;98.72;102449.50;10389520;28;20022;-65
2021/10/10 22:01:15;;;;;;;0.00;0.00;;;;;;;6.89;98.87;102463.28;10365233;28;20026;-65
2021/10/10 22:06:16;;;;;;;0.00;0.00;;;;;;;6.94;98.98;102452.41;10386411;28;20025;-65
2021/10/10 22:11:16;;;;;;;0.00;0.00;;;;;;;6.96;98.48;102447.88;10406672;28;20252;-65
2021/10/10 22:16:19;;;;;;;0.00;0.00;;;;;;;6.97;98.61;102455.72;10401182;28;20043;-65
2021/10/10 22:21:24;;;;;;;0.00;0.00;;;;;;;6.99;98.32;102458.28;10410678;28;20039;-65
2021/10/10 22:31:28;;;;;;;0.00;0.00;;;;;;;7.10;98.56;102434.59;10397091;28;20119;-65
2021/10/10 22:36:28;;;;;;;0.00;0.00;;;;;;;7.17;98.67;102438.56;10406665;28;20053;-65
2021/10/10 22:41:30;;;;;;;0.00;0.00;;;;;;;7.29;99.19;102433.44;10413301;28;20017;-65
2021/10/10 22:46:34;;;;;;;0.00;0.00;;;;;;;7.41;99.24;102435.28;10403082;28;20706;-65
2021/10/10 22:51:34;;;;;;;0.00;0.00;;;;;;;7.49;99.06;102423.22;10403091;28;20037;-65
2021/10/10 22:56:35;;;;;;;0.00;0.00;;;;;;;7.65;99.54;102431.03;10412937;28;20365;-65
2021/10/10 23:01:35;;;;;;;0.00;0.00;;;;;;;7.80;99.15;102417.72;10412510;28;20017;-65
2021/10/10 23:06:35;;;;;;;0.00;0.00;;;;;;;7.90;99.22;102414.34;10390721;28;20018;-64
2021/10/10 23:11:36;;;;;;;0.00;0.00;;;;;;;7.99;98.31;102412.88;10371489;28;20366;-64
2021/10/10 23:16:36;;;;;;;0.00;0.00;;;;;;;8.06;98.66;102408.00;10371315;28;20048;-64
2021/10/10 23:21:38;;;;;;;0.00;0.00;;;;;;;8.14;98.33;102405.66;10386457;28;20045;-64
2021/10/10 23:26:38;;;;;;;0.00;0.00;;;;;;;8.24;98.53;102405.91;10408507;28;20487;-64
2021/10/10 23:31:39;;;;;;;0.00;0.00;;;;;;;8.35;97.93;102398.91;10401236;28;20109;-64
2021/10/10 23:36:39;;;;;;;0.00;0.00;;;;;;;8.45;97.95;102404.44;10408086;28;20032;-64